Time;durP1;ratioP1;P1;durP2;ratioP2;P2;SDS_P1;SDS_P2;PMS_P1;PMS_P2;Temp;Humidity;BMP_temperature;BMP_pressure;BME280_temperature;BME280_humidity;BME280_pressure;Samples;Min_cycle;Max_cycle;Signal;HPM_P1;HPM_P2
2023/01/15 00:00:15;;;;;;;;;;;;;;;28.44;59.75;100757.59;5080126;27;69506;-37
2023/01/15 00:02:47;;;;;;;;;;;;;;;28.49;59.95;100757.00;5073560;27;65552;-37
2023/01/15 00:05:18;;;;;;;;;;;;;;;28.56;61.77;100763.25;5073866;27;69870;-36
2023/01/15 00:07:49;;;;;;;;;;;;;;;28.60;62.13;100766.34;5089908;27;66012;-36
2023/01/15 00:10:20;;;;;;;;;;;;;;;28.65;62.10;100775.47;5091713;27;69905;-36
2023/01/15 00:12:51;;;;;;;;;;;;;;;28.66;61.64;100777.13;5069792;27;67387;-36
2023/01/15 00:15:22;;;;;;;;;;;;;;;28.65;61.79;100780.06;5088179;27;70351;-37
2023/01/15 00:17:52;;;;;;;;;;;;;;;28.66;61.84;100787.91;5083164;27;66454;-37
2023/01/15 00:20:23;;;;;;;;;;;;;;;28.67;62.51;100788.78;5082250;27;70206;-37
2023/01/15 00:22:53;;;;;;;;;;;;;;;28.73;62.22;100793.34;5057815;27;66102;-37
2023/01/15 00:28:14;;;;;;;;;;;;;;;28.73;62.01;100790.63;5082656;27;65501;-37
2023/01/15 00:30:46;;;;;;;;;;;;;;;28.79;62.03;100795.19;5065880;28;70561;-36
2023/01/15 00:33:17;;;;;;;;;;;;;;;28.79;62.06;100800.59;5057286;28;65387;-37
2023/01/15 00:35:49;;;;;;;;;;;;;;;28.81;61.96;100801.22;5079275;27;69218;-37
2023/01/15 00:38:20;;;;;;;;;;;;;;;28.79;63.31;100797.91;5075210;27;66231;-39
2023/01/15 00:40:51;;;;;;;;;;;;;;;28.85;65.79;100810.56;5072246;27;70327;-36
2023/01/15 00:43:22;;;;;;;;;;;;;;;28.90;66.97;100821.56;5071143;28;66517;-38
2023/01/15 00:45:53;;;;;;;;;;;;;;;28.92;67.77;100824.91;5067594;27;69725;-38
2023/01/15 00:48:23;;;;;;;;;;;;;;;28.95;68.38;100824.47;5069258;28;66424;-36
2023/01/15 00:50:54;;;;;;;;;;;;;;;28.95;68.27;100829.88;5067611;27;70330;-37
2023/01/15 00:53:25;;;;;;;;;;;;;;;28.96;69.18;100839.63;5079706;27;66623;-38
2023/01/15 00:55:56;;;;;;;;;;;;;;;28.99;69.19;100841.09;5067285;28;69873;-36
2023/01/15 00:58:29;;;;;;;;;;;;;;;29.00;69.11;100842.75;5067004;27;66580;-38
2023/01/15 01:01:00;;;;;;;;;;;;;;;28.99;70.18;100851.06;5046489;28;70442;-37
2023/01/15 01:03:31;;;;;;;;;;;;;;;29.02;70.30;100847.94;5079464;27;65642;-37
2023/01/15 01:06:04;;;;;;;;;;;;;;;29.05;69.97;100847.56;5059736;28;69965;-37
2023/01/15 01:08:35;;;;;;;;;;;;;;;29.03;70.69;100846.91;5057777;27;67195;-37
2023/01/15 01:11:10;;;;;;;;;;;;;;;29.05;70.35;100847.56;5077518;27;70405;-37
2023/01/15 01:13:42;;;;;;;;;;;;;;;29.06;70.84;100846.50;5079562;27;65675;-37
2023/01/15 01:16:32;;;;;;;;;;;;;;;29.06;71.67;100854.59;5061160;28;70899;-36
2023/01/15 01:19:08;;;;;;;;;;;;;;;29.11;71.42;100860.22;5065447;28;66657;-37
2023/01/15 01:21:39;;;;;;;;;;;;;;;29.12;71.54;100861.91;5058339;27;69888;-38
2023/01/15 01:24:12;;;;;;;;;;;;;;;29.15;71.36;100862.31;5044419;28;66515;-38
2023/01/15 01:26:44;;;;;;;;;;;;;;;29.15;71.63;100861.47;5063442;27;69772;-43
2023/01/15 01:29:16;;;;;;;;;;;;;;;29.17;72.14;100864.81;5076259;27;66241;-37
2023/01/15 01:31:47;;;;;;;;;;;;;;;29.19;72.41;100862.72;5081805;27;70236;-37
2023/01/15 01:34:19;;;;;;;;;;;;;;;29.22;71.83;100866.88;5076711;27;65824;-37
2023/01/15 01:36:49;;;;;;;;;;;;;;;29.23;72.97;100874.78;5080277;27;69554;-37
2023/01/15 01:39:20;;;;;;;;;;;;;;;29.25;72.04;100875.38;5061790;27;65767;-37
2023/01/15 01:41:51;;;;;;;;;;;;;;;29.28;72.08;100877.69;5035317;27;70361;-37
2023/01/15 01:44:33;;;;;;;;;;;;;;;29.25;72.06;100878.06;5078855;27;66875;-36
2023/01/15 01:47:08;;;;;;;;;;;;;;;29.29;72.18;100894.72;5067211;27;69899;-37
2023/01/15 01:49:39;;;;;;;;;;;;;;;29.33;71.99;100895.94;5063270;28;66223;-37
2023/01/15 01:52:13;;;;;;;;;;;;;;;29.29;71.50;100890.13;5052297;27;70363;-37
2023/01/15 01:54:45;;;;;;;;;;;;;;;29.35;71.66;100904.69;5062474;28;65593;-37
2023/01/15 01:57:17;;;;;;;;;;;;;;;29.37;71.66;100899.91;5075062;27;69145;-37
2023/01/15 01:59:48;;;;;;;;;;;;;;;29.40;72.13;100902.19;5074995;27;65016;-38
2023/01/15 02:02:21;;;;;;;;;;;;;;;29.42;72.19;100900.13;5077408;27;71428;-36
2023/01/15 02:04:52;;;;;;;;;;;;;;;29.46;72.34;100900.50;5076270;27;66751;-38
2023/01/15 02:07:24;;;;;;;;;;;;;;;29.42;71.33;100888.44;5081246;27;70119;-36
2023/01/15 02:09:55;;;;;;;;;;;;;;;29.43;73.13;100895.53;5066587;27;66817;-35
2023/01/15 02:12:36;;;;;;;;;;;;;;;29.46;71.21;100895.94;5059875;27;70457;-38
2023/01/15 02:15:18;;;;;;;;;;;;;;;29.36;70.85;100896.38;5078395;27;65718;-37
2023/01/15 02:18:08;;;;;;;;;;;;;;;29.37;70.81;100903.44;5063175;28;69802;-37
2023/01/15 02:20:45;;;;;;;;;;;;;;;29.39;70.06;100895.97;5081128;27;66085;-36
2023/01/15 02:23:28;;;;;;;;;;;;;;;29.40;69.74;100903.00;5071272;27;69319;-37
2023/01/15 02:26:11;;;;;;;;;;;;;;;29.45;69.47;100909.66;5067273;27;65622;-37
2023/01/15 02:28:44;;;;;;;;;;;;;;;29.46;69.42;100895.09;5062419;28;69300;-35
2023/01/15 02:31:23;;;;;;;;;;;;;;;29.49;69.51;100908.19;5080621;27;65818;-38
2023/01/15 02:34:02;;;;;;;;;;;;;;;29.50;69.07;100907.97;5076004;28;70407;-37
2023/01/15 02:36:36;;;;;;;;;;;;;;;29.56;69.60;100900.88;5078907;27;66721;-37
2023/01/15 02:39:11;;;;;;;;;;;;;;;29.58;69.00;100904.22;5073101;27;70268;-37
2023/01/15 02:41:45;;;;;;;;;;;;;;;29.60;69.45;100904.84;5063943;27;66163;-37
2023/01/15 02:44:17;;;;;;;;;;;;;;;29.61;70.08;100898.38;5061309;27;70156;-37
2023/01/15 02:46:49;;;;;;;;;;;;;;;29.66;69.62;100906.75;5056798;28;65846;-37
2023/01/15 02:49:22;;;;;;;;;;;;;;;29.68;69.68;100904.66;5077468;27;70553;-36
2023/01/15 02:51:58;;;;;;;;;;;;;;;29.71;69.22;100906.94;5075680;27;66634;-37
2023/01/15 02:54:31;;;;;;;;;;;;;;;29.72;69.61;100900.47;5060005;28;70319;-36
2023/01/15 02:57:03;;;;;;;;;;;;;;;29.76;69.24;100895.50;5065504;27;66946;-37
2023/01/15 02:59:38;;;;;;;;;;;;;;;29.77;69.37;100892.56;5075602;28;69497;-37
2023/01/15 03:02:19;;;;;;;;;;;;;;;29.79;69.86;100893.19;5059100;27;66543;-37
2023/01/15 03:04:53;;;;;;;;;;;;;;;29.83;69.31;100890.88;5058372;28;70111;-37
2023/01/15 03:07:27;;;;;;;;;;;;;;;29.84;69.57;100887.16;5067051;28;65432;-36
2023/01/15 03:10:00;;;;;;;;;;;;;;;29.88;69.09;100895.66;5061185;27;69232;-36
2023/01/15 03:13:04;;;;;;;;;;;;;;;29.90;69.56;100893.59;5073981;27;66052;-35
2023/01/15 03:18:54;;;;;;;;;;;;;;;29.96;67.89;100890.03;5064594;27;66706;-36
2023/01/15 03:21:55;;;;;;;;;;;;;;;29.96;67.77;100890.03;5080906;27;69697;-37
2023/01/15 03:24:28;;;;;;;;;;;;;;;29.98;67.95;100887.94;5040334;28;66644;-36
2023/01/15 03:27:00;;;;;;;;;;;;;;;30.00;67.58;100869.59;5072247;27;70394;-37
2023/01/15 03:29:33;;;;;;;;;;;;;;;30.02;67.45;100878.34;5043327;27;66394;-36
2023/01/15 03:32:05;;;;;;;;;;;;;;;30.03;67.16;100869.16;5081971;27;70182;-38
2023/01/15 03:34:40;;;;;;;;;;;;;;;30.05;66.87;100872.50;5071860;27;65555;-37
2023/01/15 03:37:12;;;;;;;;;;;;;;;30.06;66.93;100863.31;5063855;27;69365;-37
2023/01/15 03:39:43;;;;;;;;;;;;;;;30.09;66.62;100870.19;5061332;28;65633;-37
2023/01/15 03:43:39;;;;;;;;;;;;;;;30.10;66.25;100867.28;5079221;27;69383;-37
2023/01/15 03:45:45;;;;;;;;;;;;;;;30.31;64.93;100865.31;5080415;27;66866;-37
2023/01/15 03:48:23;;;;;;;;;;;;;;;30.30;65.06;100867.19;5085705;27;70428;-39
2023/01/15 03:50:59;;;;;;;;;;;;;;;30.26;64.89;100861.41;5058631;27;65775;-38
2023/01/15 03:53:41;;;;;;;;;;;;;;;30.23;64.47;100856.41;5059751;28;70239;-38
2023/01/15 03:56:26;;;;;;;;;;;;;;;30.24;64.04;100851.84;5060790;27;66897;-37
2023/01/15 03:59:04;;;;;;;;;;;;;;;30.23;63.63;100848.31;5069272;28;69824;-38
2023/01/15 04:01:52;;;;;;;;;;;;;;;30.24;63.07;100849.13;5055482;27;66417;-38
2023/01/15 04:04:25;;;;;;;;;;;;;;;30.28;59.08;100844.94;5069127;27;70604;-39
2023/01/15 04:06:58;;;;;;;;;;;;;;;30.36;54.44;100841.13;5083817;27;66039;-37
2023/01/15 04:09:30;;;;;;;;;;;;;;;30.46;55.57;100831.50;5060714;27;70950;-38
2023/01/15 04:12:00;;;;;;;;;;;;;;;30.50;54.67;100837.28;5072000;28;66347;-38
2023/01/15 04:14:35;;;;;;;;;;;;;;;30.58;51.87;100828.91;5069110;27;70903;-37
2023/01/15 04:17:09;;;;;;;;;;;;;;;30.65;53.17;100829.69;5072326;28;66876;-37
2023/01/15 04:19:41;;;;;;;;;;;;;;;30.62;51.60;100824.72;5066727;27;69465;-38
2023/01/15 04:22:14;;;;;;;;;;;;;;;30.66;53.13;100825.94;5089857;27;65827;-38
2023/01/15 04:24:46;;;;;;;;;;;;;;;30.68;51.36;100823.84;5075164;27;70130;-36
2023/01/15 04:27:17;;;;;;;;;;;;;;;30.81;50.73;100824.81;5091266;27;66142;-37
2023/01/15 04:29:48;;;;;;;;;;;;;;;30.84;50.63;100816.22;5083648;27;69368;-37
2023/01/15 04:32:19;;;;;;;;;;;;;;;30.72;52.02;100814.22;5083672;27;66766;-38
2023/01/15 04:34:49;;;;;;;;;;;;;;;30.70;52.90;100810.91;5081757;27;70343;-38
2023/01/15 04:37:20;;;;;;;;;;;;;;;30.70;53.13;100794.69;5079913;27;66949;-38
2023/01/15 04:39:50;;;;;;;;;;;;;;;30.75;53.75;100802.13;5086708;27;70593;-38
2023/01/15 04:45:10;;;;;;;;;;;;;;;30.79;53.96;100791.69;5083976;27;69475;-40
2023/01/15 04:47:41;;;;;;;;;;;;;;;30.78;53.74;100782.72;4995510;28;66451;-38
2023/01/15 04:50:12;;;;;;;;;;;;;;;30.81;54.63;100786.88;5041037;28;70384;-38
2023/01/15 04:52:42;;;;;;;;;;;;;;;30.81;54.69;100776.06;5038413;28;66469;-38
2023/01/15 04:55:13;;;;;;;;;;;;;;;30.82;54.99;100775.03;5050840;28;69945;-39
2023/01/15 04:57:44;;;;;;;;;;;;;;;30.83;54.80;100765.84;5052126;28;65432;-38
2023/01/15 05:00:15;;;;;;;;;;;;;;;30.84;55.22;100757.50;5040501;28;69757;-39
2023/01/15 05:02:45;;;;;;;;;;;;;;;30.84;54.59;100753.94;5036654;28;65625;-39
2023/01/15 05:05:16;;;;;;;;;;;;;;;30.85;55.19;100752.91;5040628;28;69396;-37
2023/01/15 05:07:47;;;;;;;;;;;;;;;30.85;54.75;100744.78;5039899;28;65772;-37
2023/01/15 05:10:17;;;;;;;;;;;;;;;30.87;55.38;100745.38;5040045;28;70092;-38
2023/01/15 05:12:49;;;;;;;;;;;;;;;30.86;55.38;100732.91;5039129;28;66530;-39
2023/01/15 05:15:19;;;;;;;;;;;;;;;30.90;55.37;100745.78;5037405;28;70916;-39
2023/01/15 05:17:50;;;;;;;;;;;;;;;30.91;55.11;100736.59;5037143;28;65252;-39
2023/01/15 05:20:21;;;;;;;;;;;;;;;30.91;55.35;100730.34;5036476;28;70356;-39
2023/01/15 05:22:51;;;;;;;;;;;;;;;31.03;54.58;100733.13;5037080;28;66547;-38
2023/01/15 05:25:22;;;;;;;;;;;;;;;31.02;55.06;100726.88;5038494;28;69653;-40
2023/01/15 05:27:53;;;;;;;;;;;;;;;30.98;56.03;100723.00;5042499;28;66419;-38
2023/01/15 05:30:24;;;;;;;;;;;;;;;30.82;54.25;100710.03;5039807;28;69637;-36
2023/01/15 05:32:56;;;;;;;;;;;;;;;30.60;52.51;100715.81;5031133;28;65672;-39
2023/01/15 05:35:27;;;;;;;;;;;;;;;30.43;52.88;100706.63;5030924;28;70727;-37
2023/01/15 05:37:57;;;;;;;;;;;;;;;30.34;52.63;100708.78;5035530;28;66201;-38
2023/01/15 05:40:28;;;;;;;;;;;;;;;30.30;51.73;100696.72;5057668;28;69391;-38
2023/01/15 05:42:58;;;;;;;;;;;;;;;30.23;51.72;100694.09;5038569;28;66915;-36
2023/01/15 05:45:34;;;;;;;;;;;;;;;30.17;50.55;100683.25;5039947;28;70654;-36
2023/01/15 05:48:05;;;;;;;;;;;;;;;30.15;49.44;100688.91;5075325;27;66495;-38
2023/01/15 05:50:36;;;;;;;;;;;;;;;30.05;50.06;100680.44;5070153;27;70099;-37
2023/01/15 05:53:07;;;;;;;;;;;;;;;30.02;49.71;100686.28;5078298;27;66405;-37
2023/01/15 05:55:37;;;;;;;;;;;;;;;29.98;49.78;100677.81;5079720;27;70377;-36
2023/01/15 05:58:08;;;;;;;;;;;;;;;29.92;49.16;100670.56;5081755;27;66550;-33
2023/01/15 06:00:39;;;;;;;;;;;;;;;29.89;49.23;100662.03;5079787;27;70024;-34
2023/01/15 06:03:09;;;;;;;;;;;;;;;29.76;48.51;100658.41;5081359;27;66865;-33
2023/01/15 06:05:40;;;;;;;;;;;;;;;29.74;47.87;100655.06;5082754;27;69718;-33
2023/01/15 06:08:11;;;;;;;;;;;;;;;29.69;47.36;100656.78;5092540;27;65464;-34
2023/01/15 06:10:43;;;;;;;;;;;;;;;29.64;46.98;100654.72;5083416;27;70754;-32
2023/01/15 06:13:15;;;;;;;;;;;;;;;29.60;46.35;100656.19;5056790;27;66171;-32
2023/01/15 06:15:46;;;;;;;;;;;;;;;29.53;45.82;100641.84;5047435;27;68815;-32
2023/01/15 06:18:16;;;;;;;;;;;;;;;29.52;45.61;100638.34;5081443;27;65690;-32
2023/01/15 06:20:47;;;;;;;;;;;;;;;29.47;45.58;100621.09;5086423;27;70770;-32
2023/01/15 06:23:18;;;;;;;;;;;;;;;29.46;44.72;100622.16;5081470;27;65598;-32
2023/01/15 06:25:48;;;;;;;;;;;;;;;29.43;44.58;100609.09;5084759;27;69889;-32
2023/01/15 06:28:20;;;;;;;;;;;;;;;29.37;44.47;100603.50;5081260;27;66694;-31
2023/01/15 06:30:50;;;;;;;;;;;;;;;29.36;44.52;100599.16;5086688;27;70103;-33
2023/01/15 06:33:22;;;;;;;;;;;;;;;29.32;44.02;100608.72;5050344;27;66515;-32
2023/01/15 06:35:52;;;;;;;;;;;;;;;29.32;44.21;100608.72;5085495;27;69458;-32
2023/01/15 06:38:23;;;;;;;;;;;;;;;29.32;44.03;100595.22;5078673;27;66389;-33
2023/01/15 06:40:53;;;;;;;;;;;;;;;29.31;43.64;100590.88;5056200;27;70491;-33
2023/01/15 06:49:02;;;;;;;;;;;;;;;29.28;43.16;100577.81;5085311;27;66567;-35
2023/01/15 06:51:32;;;;;;;;;;;;;;;29.27;42.79;100573.41;5080191;27;69225;-31
2023/01/15 06:54:04;;;;;;;;;;;;;;;29.27;43.15;100562.63;5082915;27;66529;-35
2023/01/15 06:56:34;;;;;;;;;;;;;;;29.28;42.35;100563.44;5077546;27;69661;-32
2023/01/15 06:59:05;;;;;;;;;;;;;;;29.28;42.78;100558.03;5079689;27;66483;-35
2023/01/15 07:01:35;;;;;;;;;;;;;;;29.29;42.38;100555.13;5062118;27;70308;-34
2023/01/15 07:04:06;;;;;;;;;;;;;;;29.25;42.16;100558.47;5082169;27;66811;-32
2023/01/15 07:06:37;;;;;;;;;;;;;;;29.25;42.19;100543.09;5080713;27;69947;-32
2023/01/15 07:09:07;;;;;;;;;;;;;;;29.26;41.85;100536.66;5078091;27;66075;-35
2023/01/15 07:11:48;;;;;;;;;;;;;;;29.24;42.31;100529.81;5054296;27;69917;-32
2023/01/15 07:14:20;;;;;;;;;;;;;;;29.26;43.04;100538.53;5081175;27;66134;-33
2023/01/15 07:16:51;;;;;;;;;;;;;;;29.26;42.59;100535.84;5086145;27;70139;-34
2023/01/15 07:19:22;;;;;;;;;;;;;;;29.31;43.57;100535.97;5076919;27;65254;-32
2023/01/15 07:21:52;;;;;;;;;;;;;;;29.35;43.32;100531.81;5080621;27;71380;-34
2023/01/15 07:24:23;;;;;;;;;;;;;;;29.35;42.85;100524.53;5079490;27;66786;-32
2023/01/15 07:26:54;;;;;;;;;;;;;;;29.39;42.49;100517.66;5086663;27;70367;-32
2023/01/15 07:29:24;;;;;;;;;;;;;;;29.25;42.07;100499.88;5084286;27;66615;-32
2023/01/15 07:31:55;;;;;;;;;;;;;;;29.38;42.31;100510.59;5087714;27;69157;-37
2023/01/15 07:34:26;;;;;;;;;;;;;;;29.38;42.11;100499.78;5079882;27;65288;-32
2023/01/15 07:36:57;;;;;;;;;;;;;;;29.43;42.94;100509.94;5066735;27;69932;-31
2023/01/15 07:39:30;;;;;;;;;;;;;;;29.50;45.99;100507.16;5089702;27;66523;-32
2023/01/15 07:50:27;;;;;;;;;;;;;;;29.82;46.93;100499.88;5081461;27;66278;-34
2023/01/15 07:52:58;;;;;;;;;;;;;;;29.82;45.67;100500.69;5082770;27;70676;-32
2023/01/15 07:55:29;;;;;;;;;;;;;;;29.83;45.51;100502.34;5081525;27;65729;-33
2023/01/15 07:57:59;;;;;;;;;;;;;;;29.84;44.32;100495.91;5081734;27;69758;-32
2023/01/15 08:00:30;;;;;;;;;;;;;;;29.82;43.54;100487.19;5076934;27;65658;-34
2023/01/15 08:03:02;;;;;;;;;;;;;;;29.79;43.00;100490.31;5086100;27;70074;-33
2023/01/15 08:05:33;;;;;;;;;;;;;;;29.84;43.48;100485.09;5085001;27;66521;-32
2023/01/15 08:08:03;;;;;;;;;;;;;;;29.82;43.28;100489.88;5083251;27;70167;-32
2023/01/15 08:15:11;;;;;;;;;;;;;;;29.83;42.72;100491.53;5079777;27;66525;-32
2023/01/15 08:16:14;;;;;;;;;;;;;;;29.86;42.58;100489.44;5083042;27;65894;-32
2023/01/15 08:18:45;;;;;;;;;;;;;;;29.87;42.07;100485.69;5075432;28;69284;-32
2023/01/15 08:21:16;;;;;;;;;;;;;;;29.89;42.36;100488.97;5088111;27;66653;-33
2023/01/15 08:23:48;;;;;;;;;;;;;;;29.91;42.21;100481.47;5082713;27;69842;-33
2023/01/15 08:26:19;;;;;;;;;;;;;;;29.89;42.00;100484.41;5085554;27;66562;-32
2023/01/15 08:28:49;;;;;;;;;;;;;;;29.89;41.68;100488.97;5082590;27;69622;-33
2023/01/15 08:31:21;;;;;;;;;;;;;;;30.06;46.05;100490.06;5081770;27;66807;-32
2023/01/15 08:33:51;;;;;;;;;;;;;;;30.36;47.64;100492.88;5064711;28;69706;-33
2023/01/15 08:36:22;;;;;;;;;;;;;;;30.57;48.43;100491.59;5079152;27;67348;-30
2023/01/15 08:38:52;;;;;;;;;;;;;;;30.75;47.82;100493.44;5067007;27;69669;-33
2023/01/15 08:41:23;;;;;;;;;;;;;;;30.92;47.75;100493.66;5085902;27;66489;-32
2023/01/15 08:43:54;;;;;;;;;;;;;;;31.06;47.46;100494.28;5089962;27;70122;-31
2023/01/15 08:46:24;;;;;;;;;;;;;;;31.21;47.01;100494.69;5083990;27;66744;-33
2023/01/15 08:48:55;;;;;;;;;;;;;;;31.21;47.67;100491.16;5082320;27;70445;-33
2023/01/15 08:51:26;;;;;;;;;;;;;;;31.26;48.22;100488.56;5081390;27;66490;-31
2023/01/15 08:53:57;;;;;;;;;;;;;;;31.28;48.49;100491.88;5085290;27;68945;-32
2023/01/15 08:56:28;;;;;;;;;;;;;;;31.31;48.84;100492.22;5082331;27;66459;-33
2023/01/15 08:58:58;;;;;;;;;;;;;;;31.34;49.42;100485.50;5080142;27;70314;-31
2023/01/15 09:01:29;;;;;;;;;;;;;;;31.34;50.38;100490.94;5082923;27;65207;-33
2023/01/15 09:04:00;;;;;;;;;;;;;;;31.41;50.80;100490.88;5076987;27;70433;-32
2023/01/15 09:06:30;;;;;;;;;;;;;;;31.48;49.70;100497.84;5079725;27;67843;-32
2023/01/15 09:09:01;;;;;;;;;;;;;;;31.52;49.60;100499.03;5080111;27;69783;-32
2023/01/15 09:11:32;;;;;;;;;;;;;;;31.58;50.68;100492.66;5080834;27;66863;-34
2023/01/15 09:14:02;;;;;;;;;;;;;;;31.69;50.43;100503.75;5060737;27;69680;-33
2023/01/15 09:16:33;;;;;;;;;;;;;;;31.82;50.74;100503.53;5085750;27;67037;-34
2023/01/15 09:19:05;;;;;;;;;;;;;;;31.92;49.88;100502.97;5080388;27;70534;-35
2023/01/15 09:21:36;;;;;;;;;;;;;;;32.00;49.93;100500.72;5076800;27;66479;-34
2023/01/15 09:24:06;;;;;;;;;;;;;;;32.07;51.45;100505.19;5082287;27;70064;-37
2023/01/15 09:26:38;;;;;;;;;;;;;;;31.77;51.27;100511.53;5083528;27;65868;-37
2023/01/15 09:29:09;;;;;;;;;;;;;;;31.75;51.79;100513.66;5078174;27;70377;-38
2023/01/15 09:31:40;;;;;;;;;;;;;;;31.84;51.14;100512.22;5083124;27;66913;-33
2023/01/15 09:34:11;;;;;;;;;;;;;;;31.94;51.39;100515.22;5082842;27;71240;-34
2023/01/15 09:36:41;;;;;;;;;;;;;;;31.79;51.40;100523.81;5079895;27;66971;-35
2023/01/15 09:39:12;;;;;;;;;;;;;;;31.71;53.34;100535.00;5059478;27;70632;-34
2023/01/15 09:42:04;;;;;;;;;;;;;;;31.43;52.52;100486.06;5079923;27;66916;-34
2023/01/15 09:44:34;;;;;;;;;;;;;;;31.73;52.03;100537.47;5075078;27;69901;-36
2023/01/15 09:47:11;;;;;;;;;;;;;;;31.75;52.21;100546.19;5078799;27;66070;-34
2023/01/15 09:49:41;;;;;;;;;;;;;;;31.72;53.51;100543.97;5078394;27;70362;-35
2023/01/15 09:52:25;;;;;;;;;;;;;;;31.72;53.20;100543.97;5076177;27;67124;-36
2023/01/15 09:54:56;;;;;;;;;;;;;;;31.73;52.54;100553.72;5076306;27;69845;-35
2023/01/15 09:57:27;;;;;;;;;;;;;;;31.72;52.76;100562.94;5057411;27;63566;-37
2023/01/15 10:00:01;;;;;;;;;;;;;;;31.75;52.24;100562.47;5072462;27;69116;-36
2023/01/15 10:02:42;;;;;;;;;;;;;;;31.73;52.31;100570.00;5078831;27;66299;-36
2023/01/15 10:05:15;;;;;;;;;;;;;;;31.75;51.55;100565.19;5079279;27;69785;-37
2023/01/15 10:07:46;;;;;;;;;;;;;;;31.73;51.52;100570.84;5075715;27;65236;-37
2023/01/15 10:10:22;;;;;;;;;;;;;;;31.73;51.62;100578.16;5051216;27;69691;-35
2023/01/15 10:12:57;;;;;;;;;;;;;;;31.69;53.22;100579.69;5070876;27;65382;-35
2023/01/15 10:15:41;;;;;;;;;;;;;;;31.68;54.51;100575.28;5077640;27;69760;-36
2023/01/15 10:18:16;;;;;;;;;;;;;;;31.62;55.10;100579.78;5058204;27;66847;-39
2023/01/15 10:20:53;;;;;;;;;;;;;;;31.57;55.37;100582.38;5053912;28;70957;-35
2023/01/15 10:23:50;;;;;;;;;;;;;;;31.84;54.48;100585.47;5076703;27;66052;-35
2023/01/15 10:26:39;;;;;;;;;;;;;;;31.99;54.29;100588.59;5060850;27;69762;-35
2023/01/15 10:29:21;;;;;;;;;;;;;;;32.07;53.70;100583.88;5070289;27;65583;-36
2023/01/15 10:31:52;;;;;;;;;;;;;;;32.12;53.75;100590.22;5066374;27;69097;-37
2023/01/15 10:34:26;;;;;;;;;;;;;;;32.16;53.60;100604.19;5072423;27;66755;-34
2023/01/15 10:37:17;;;;;;;;;;;;;;;32.17;53.34;100598.50;5076769;27;69746;-35
2023/01/15 10:39:57;;;;;;;;;;;;;;;32.21;53.54;100607.00;5055635;27;66769;-37
2023/01/15 10:42:29;;;;;;;;;;;;;;;32.22;53.27;100601.34;5077193;27;71000;-36
2023/01/15 10:45:09;;;;;;;;;;;;;;;32.23;53.00;100604.88;5069574;27;66679;-35
2023/01/15 10:47:41;;;;;;;;;;;;;;;32.23;52.96;100602.16;5075493;27;70131;-37
2023/01/15 10:50:21;;;;;;;;;;;;;;;32.24;53.03;100614.69;5057488;27;66319;-35
2023/01/15 10:53:11;;;;;;;;;;;;;;;32.23;53.07;100618.44;5072983;27;69411;-37
2023/01/15 10:55:49;;;;;;;;;;;;;;;32.25;52.77;100621.75;5074785;27;66996;-35
2023/01/15 10:58:19;;;;;;;;;;;;;;;32.25;52.76;100614.44;5074119;27;70385;-35
2023/01/15 11:00:54;;;;;;;;;;;;;;;32.24;53.07;100625.53;5078464;27;65493;-35
2023/01/15 11:03:34;;;;;;;;;;;;;;;32.25;52.99;100616.31;5065490;27;70722;-35
2023/01/15 11:06:07;;;;;;;;;;;;;;;32.25;53.06;100629.91;5063647;27;66061;-35
2023/01/15 11:08:40;;;;;;;;;;;;;;;32.23;52.78;100635.56;5060905;27;69729;-35
2023/01/15 11:20:04;;;;;;;;;;;;;;;32.15;53.81;100646.78;5052881;28;68062;-36
2023/01/15 11:22:38;;;;;;;;;;;;;;;32.16;53.45;100644.88;5045628;28;66915;-37
2023/01/15 11:25:09;;;;;;;;;;;;;;;32.18;53.90;100648.16;5086315;27;70377;-37
2023/01/15 11:27:40;;;;;;;;;;;;;;;32.17;53.84;100652.78;5067455;27;65631;-36
2023/01/15 11:30:24;;;;;;;;;;;;;;;32.18;54.05;100653.59;5072659;27;69721;-35
2023/01/15 11:32:57;;;;;;;;;;;;;;;32.16;54.01;100658.44;5081842;27;66237;-36
2023/01/15 11:35:27;;;;;;;;;;;;;;;32.17;54.11;100662.81;5069569;28;70454;-36
2023/01/15 11:38:02;;;;;;;;;;;;;;;32.15;54.61;100664.91;5088268;27;66074;-35
2023/01/15 11:40:33;;;;;;;;;;;;;;;32.12;55.22;100668.94;5080613;27;69508;-37
2023/01/15 11:52:12;;;;;;;;;;;;;;;31.44;59.04;100691.81;5085493;27;69266;-36
2023/01/15 11:54:46;;;;;;;;;;;;;;;31.40;59.74;100696.06;5064702;28;66869;-36
2023/01/15 11:57:25;;;;;;;;;;;;;;;31.38;59.85;100698.97;5049924;27;68732;-34
2023/01/15 11:59:56;;;;;;;;;;;;;;;31.35;60.86;100701.28;5083931;27;65274;-35
2023/01/15 12:02:44;;;;;;;;;;;;;;;31.33;61.06;100706.94;5085677;27;69384;-36
2023/01/15 12:05:25;;;;;;;;;;;;;;;31.35;61.13;100709.44;5071824;27;66488;-36
2023/01/15 12:07:58;;;;;;;;;;;;;;;31.31;61.42;100717.16;5078109;27;69016;-35
2023/01/15 12:13:34;;;;;;;;;;;;;;;31.27;60.93;100717.88;5083857;27;70048;-35
2023/01/15 12:16:04;;;;;;;;;;;;;;;31.27;60.57;100728.69;5068308;27;65571;-34
2023/01/15 12:18:50;;;;;;;;;;;;;;;31.26;60.08;100721.59;5081684;27;69970;-35
2023/01/15 12:21:28;;;;;;;;;;;;;;;31.25;60.15;100736.22;5083850;27;67096;-37
2023/01/15 12:24:01;;;;;;;;;;;;;;;31.25;59.79;100736.22;5079074;27;69925;-34
2023/01/15 12:26:33;;;;;;;;;;;;;;;31.22;59.78;100733.97;5085540;27;65551;-34
2023/01/15 12:29:10;;;;;;;;;;;;;;;31.21;59.64;100741.28;5083173;27;69915;-36
2023/01/15 12:31:43;;;;;;;;;;;;;;;31.21;59.45;100741.28;5056805;28;65775;-34
2023/01/15 12:34:26;;;;;;;;;;;;;;;31.21;59.88;100754.00;5067880;27;70070;-34
2023/01/15 12:37:04;;;;;;;;;;;;;;;31.19;59.83;100745.25;5063605;28;66819;-36
2023/01/15 12:39:40;;;;;;;;;;;;;;;31.20;59.80;100755.03;5083103;27;70376;-36
2023/01/15 12:45:07;;;;;;;;;;;;;;;31.19;59.34;100767.75;5058820;28;69787;-35
2023/01/15 12:47:42;;;;;;;;;;;;;;;31.16;59.23;100777.16;5082069;27;66096;-37
2023/01/15 12:50:19;;;;;;;;;;;;;;;31.12;59.05;100775.97;5085729;27;70133;-38
2023/01/15 12:52:53;;;;;;;;;;;;;;;31.10;59.51;100772.66;5079674;27;66090;-36
2023/01/15 12:55:33;;;;;;;;;;;;;;;31.07;59.49;100783.94;5078789;27;69799;-37
2023/01/15 12:58:10;;;;;;;;;;;;;;;31.04;60.20;100784.41;5059573;27;65525;-36
2023/01/15 13:00:42;;;;;;;;;;;;;;;31.03;59.88;100787.31;5078853;27;69017;-36
2023/01/15 13:03:29;;;;;;;;;;;;;;;31.01;60.37;100789.41;5081190;27;66342;-35
2023/01/15 13:06:02;;;;;;;;;;;;;;;30.99;60.44;100792.34;5059051;27;70340;-37
2023/01/15 13:08:38;;;;;;;;;;;;;;;30.98;60.21;100800.69;5040079;27;67602;-39
2023/01/15 13:11:12;;;;;;;;;;;;;;;30.95;60.24;100807.38;5078455;27;69998;-36
2023/01/15 13:13:56;;;;;;;;;;;;;;;30.92;60.50;100808.69;5061517;27;66640;-35
2023/01/15 13:16:32;;;;;;;;;;;;;;;30.92;60.42;100814.09;5063090;27;69662;-35
2023/01/15 13:19:26;;;;;;;;;;;;;;;30.90;60.37;100816.19;5057463;27;66237;-36
2023/01/15 13:22:01;;;;;;;;;;;;;;;30.58;60.20;100769.34;5071207;27;69465;-37
2023/01/15 13:24:43;;;;;;;;;;;;;;;30.86;60.78;100819.56;5064287;27;66866;-34
2023/01/15 13:27:40;;;;;;;;;;;;;;;30.87;60.27;100826.63;5077649;27;69936;-35
2023/01/15 13:30:29;;;;;;;;;;;;;;;30.84;60.63;100827.91;5078209;27;66112;-35
2023/01/15 13:33:24;;;;;;;;;;;;;;;30.83;60.27;100833.53;5076597;27;69507;-36
2023/01/15 13:36:00;;;;;;;;;;;;;;;30.82;60.98;100824.59;5080609;27;65895;-36
2023/01/15 13:38:37;;;;;;;;;;;;;;;30.80;61.06;100828.56;5060512;27;69898;-39
2023/01/15 13:41:08;;;;;;;;;;;;;;;30.80;60.90;100836.69;5083913;27;67361;-33
2023/01/15 13:43:40;;;;;;;;;;;;;;;30.84;61.60;100848.72;5079134;27;71225;-35
2023/01/15 13:46:13;;;;;;;;;;;;;;;30.87;62.18;100848.28;5086119;27;66497;-36
2023/01/15 13:48:49;;;;;;;;;;;;;;;30.86;61.38;100847.47;5083304;27;70471;-37
2023/01/15 13:51:25;;;;;;;;;;;;;;;30.87;60.50;100848.28;5080437;27;66810;-33
2023/01/15 13:53:58;;;;;;;;;;;;;;;30.86;59.82;100860.19;5048483;27;69912;-32
2023/01/15 13:56:31;;;;;;;;;;;;;;;30.82;59.33;100858.97;5077340;27;65912;-34
2023/01/15 13:59:04;;;;;;;;;;;;;;;30.80;58.68;100861.06;5082818;27;70339;-35